sensor_id;sensor_type;location;lat;lon;timestamp;temperature;humidity
74153;DHT22;62505;46.070;14.492;2024-01-06T00:00:18;22.40;63.10
74153;DHT22;62505;46.070;14.492;2024-01-06T00:02:46;22.40;63.20
74153;DHT22;62505;46.070;14.492;2024-01-06T00:05:13;22.40;63.20
74153;DHT22;62505;46.070;14.492;2024-01-06T00:07:40;22.40;63.20
74153;DHT22;62505;46.070;14.492;2024-01-06T00:10:08;22.40;63.10
74153;DHT22;62505;46.070;14.492;2024-01-06T00:12:35;22.40;63.20
74153;DHT22;62505;46.070;14.492;2024-01-06T00:15:02;22.40;63.30
74153;DHT22;62505;46.070;14.492;2024-01-06T00:17:31;22.40;63.40
74153;DHT22;62505;46.070;14.492;2024-01-06T00:19:58;22.40;63.30
74153;DHT22;62505;46.070;14.492;2024-01-06T00:22:25;22.40;63.30
74153;DHT22;62505;46.070;14.492;2024-01-06T00:24:52;22.40;63.30
74153;DHT22;62505;46.070;14.492;2024-01-06T00:27:19;22.40;63.30
74153;DHT22;62505;46.070;14.492;2024-01-06T00:29:46;22.40;63.40
74153;DHT22;62505;46.070;14.492;2024-01-06T00:32:14;22.40;63.40
74153;DHT22;62505;46.070;14.492;2024-01-06T00:34:42;22.40;63.40
74153;DHT22;62505;46.070;14.492;2024-01-06T00:37:09;22.40;63.40
74153;DHT22;62505;46.070;14.492;2024-01-06T00:39:36;22.40;63.40
74153;DHT22;62505;46.070;14.492;2024-01-06T00:42:03;22.40;63.40
74153;DHT22;62505;46.070;14.492;2024-01-06T00:44:30;22.40;63.40
74153;DHT22;62505;46.070;14.492;2024-01-06T00:46:57;22.30;63.30
74153;DHT22;62505;46.070;14.492;2024-01-06T00:49:24;22.40;63.40
74153;DHT22;62505;46.070;14.492;2024-01-06T00:51:53;22.40;63.40
74153;DHT22;62505;46.070;14.492;2024-01-06T00:54:19;22.40;63.40
74153;DHT22;62505;46.070;14.492;2024-01-06T00:56:46;22.40;63.40
74153;DHT22;62505;46.070;14.492;2024-01-06T00:59:13;22.40;63.40
74153;DHT22;62505;46.070;14.492;2024-01-06T01:01:40;22.40;63.40
74153;DHT22;62505;46.070;14.492;2024-01-06T01:04:07;22.40;63.40
74153;DHT22;62505;46.070;14.492;2024-01-06T01:06:36;22.40;63.40
74153;DHT22;62505;46.070;14.492;2024-01-06T01:09:05;22.40;63.40
74153;DHT22;62505;46.070;14.492;2024-01-06T01:11:32;22.40;63.40
74153;DHT22;62505;46.070;14.492;2024-01-06T01:13:59;22.40;63.40
74153;DHT22;62505;46.070;14.492;2024-01-06T01:16:26;22.40;64.20
74153;DHT22;62505;46.070;14.492;2024-01-06T01:18:53;22.40;63.50
74153;DHT22;62505;46.070;14.492;2024-01-06T01:21:20;22.40;63.50
74153;DHT22;62505;46.070;14.492;2024-01-06T01:23:47;22.40;63.60
74153;DHT22;62505;46.070;14.492;2024-01-06T01:26:15;22.40;63.60
74153;DHT22;62505;46.070;14.492;2024-01-06T01:28:42;22.40;63.50
74153;DHT22;62505;46.070;14.492;2024-01-06T01:31:09;22.40;64.30
74153;DHT22;62505;46.070;14.492;2024-01-06T01:33:36;22.40;63.60
74153;DHT22;62505;46.070;14.492;2024-01-06T01:36:03;22.40;63.60
74153;DHT22;62505;46.070;14.492;2024-01-06T01:38:31;22.40;63.60
74153;DHT22;62505;46.070;14.492;2024-01-06T01:40:58;22.40;63.50
74153;DHT22;62505;46.070;14.492;2024-01-06T01:43:26;22.40;63.60
74153;DHT22;62505;46.070;14.492;2024-01-06T01:45:55;22.40;64.30
74153;DHT22;62505;46.070;14.492;2024-01-06T01:48:23;22.40;63.60
74153;DHT22;62505;46.070;14.492;2024-01-06T01:50:50;22.40;63.60
74153;DHT22;62505;46.070;14.492;2024-01-06T01:53:18;22.40;63.70
74153;DHT22;62505;46.070;14.492;2024-01-06T01:55:47;22.40;63.60
74153;DHT22;62505;46.070;14.492;2024-01-06T01:58:16;22.40;63.60
74153;DHT22;62505;46.070;14.492;2024-01-06T02:00:44;22.40;63.70
74153;DHT22;62505;46.070;14.492;2024-01-06T02:03:13;22.30;63.70
74153;DHT22;62505;46.070;14.492;2024-01-06T02:05:40;22.40;63.70
74153;DHT22;62505;46.070;14.492;2024-01-06T02:08:08;22.40;63.70
74153;DHT22;62505;46.070;14.492;2024-01-06T02:10:35;22.40;63.70
74153;DHT22;62505;46.070;14.492;2024-01-06T02:13:08;22.40;63.70
74153;DHT22;62505;46.070;14.492;2024-01-06T02:15:35;22.40;63.70
74153;DHT22;62505;46.070;14.492;2024-01-06T02:18:04;22.40;63.70
74153;DHT22;62505;46.070;14.492;2024-01-06T02:20:31;22.40;63.70
74153;DHT22;62505;46.070;14.492;2024-01-06T02:23:00;22.40;63.70
74153;DHT22;62505;46.070;14.492;2024-01-06T02:25:27;22.40;63.70
74153;DHT22;62505;46.070;14.492;2024-01-06T02:27:54;22.40;63.70
74153;DHT22;62505;46.070;14.492;2024-01-06T02:30:21;22.40;63.70
74153;DHT22;62505;46.070;14.492;2024-01-06T02:32:48;22.40;63.70
74153;DHT22;62505;46.070;14.492;2024-01-06T02:35:15;22.40;63.70
74153;DHT22;62505;46.070;14.492;2024-01-06T02:37:42;22.40;63.80
74153;DHT22;62505;46.070;14.492;2024-01-06T02:40:12;22.40;63.70
74153;DHT22;62505;46.070;14.492;2024-01-06T02:42:39;22.40;63.70
74153;DHT22;62505;46.070;14.492;2024-01-06T02:45:07;22.40;63.80
74153;DHT22;62505;46.070;14.492;2024-01-06T02:47:35;22.40;63.80
74153;DHT22;62505;46.070;14.492;2024-01-06T02:50:02;22.40;63.80
74153;DHT22;62505;46.070;14.492;2024-01-06T02:52:29;22.30;63.80
74153;DHT22;62505;46.070;14.492;2024-01-06T02:54:56;22.40;63.70
74153;DHT22;62505;46.070;14.492;2024-01-06T02:57:24;22.40;63.90
74153;DHT22;62505;46.070;14.492;2024-01-06T02:59:51;22.40;63.90
74153;DHT22;62505;46.070;14.492;2024-01-06T03:02:18;22.40;63.80
74153;DHT22;62505;46.070;14.492;2024-01-06T03:04:45;22.40;63.80
74153;DHT22;62505;46.070;14.492;2024-01-06T03:07:12;22.40;63.80
74153;DHT22;62505;46.070;14.492;2024-01-06T03:09:39;22.40;63.80
74153;DHT22;62505;46.070;14.492;2024-01-06T03:12:06;22.40;63.90
74153;DHT22;62505;46.070;14.492;2024-01-06T03:14:35;22.40;63.90
74153;DHT22;62505;46.070;14.492;2024-01-06T03:17:03;22.40;63.90
74153;DHT22;62505;46.070;14.492;2024-01-06T03:19:30;22.40;64.70
74153;DHT22;62505;46.070;14.492;2024-01-06T03:21:57;22.40;63.90
74153;DHT22;62505;46.070;14.492;2024-01-06T03:24:26;22.40;63.80
74153;DHT22;62505;46.070;14.492;2024-01-06T03:26:53;22.40;63.80
74153;DHT22;62505;46.070;14.492;2024-01-06T03:29:20;22.40;63.80
74153;DHT22;62505;46.070;14.492;2024-01-06T03:31:49;22.40;63.90
74153;DHT22;62505;46.070;14.492;2024-01-06T03:34:16;22.40;63.90
74153;DHT22;62505;46.070;14.492;2024-01-06T03:36:42;22.40;63.90
74153;DHT22;62505;46.070;14.492;2024-01-06T03:39:09;22.40;63.90
74153;DHT22;62505;46.070;14.492;2024-01-06T03:41:38;22.40;63.90
74153;DHT22;62505;46.070;14.492;2024-01-06T03:44:05;22.40;63.90
74153;DHT22;62505;46.070;14.492;2024-01-06T03:46:33;22.40;63.90
74153;DHT22;62505;46.070;14.492;2024-01-06T03:49:01;22.40;63.90
74153;DHT22;62505;46.070;14.492;2024-01-06T03:51:28;22.40;63.90
74153;DHT22;62505;46.070;14.492;2024-01-06T03:53:55;22.40;63.90
74153;DHT22;62505;46.070;14.492;2024-01-06T03:56:22;22.40;63.90
74153;DHT22;62505;46.070;14.492;2024-01-06T03:58:49;22.40;63.90
74153;DHT22;62505;46.070;14.492;2024-01-06T04:01:16;22.40;63.90
74153;DHT22;62505;46.070;14.492;2024-01-06T04:03:43;22.40;63.90
74153;DHT22;62505;46.070;14.492;2024-01-06T04:06:11;22.40;63.90
74153;DHT22;62505;46.070;14.492;2024-01-06T04:08:39;22.40;63.90
74153;DHT22;62505;46.070;14.492;2024-01-06T04:11:07;22.40;63.90
74153;DHT22;62505;46.070;14.492;2024-01-06T04:13:34;22.40;63.90
74153;DHT22;62505;46.070;14.492;2024-01-06T04:16:01;22.40;63.80
74153;DHT22;62505;46.070;14.492;2024-01-06T04:18:28;22.40;63.80
74153;DHT22;62505;46.070;14.492;2024-01-06T04:20:55;22.40;63.70
74153;DHT22;62505;46.070;14.492;2024-01-06T04:23:23;22.40;63.80
74153;DHT22;62505;46.070;14.492;2024-01-06T04:25:51;22.40;63.80
74153;DHT22;62505;46.070;14.492;2024-01-06T04:28:18;22.40;63.80
74153;DHT22;62505;46.070;14.492;2024-01-06T04:30:45;22.40;63.90
74153;DHT22;62505;46.070;14.492;2024-01-06T04:33:12;22.40;63.90
74153;DHT22;62505;46.070;14.492;2024-01-06T04:35:39;22.40;63.90
74153;DHT22;62505;46.070;14.492;2024-01-06T04:38:06;22.40;63.90
74153;DHT22;62505;46.070;14.492;2024-01-06T04:40:34;22.40;64.00
74153;DHT22;62505;46.070;14.492;2024-01-06T04:43:01;22.40;64.00
74153;DHT22;62505;46.070;14.492;2024-01-06T04:45:28;22.40;64.00
74153;DHT22;62505;46.070;14.492;2024-01-06T04:47:55;22.40;64.00
74153;DHT22;62505;46.070;14.492;2024-01-06T04:50:22;22.40;64.10
74153;DHT22;62505;46.070;14.492;2024-01-06T04:52:52;22.40;64.20
74153;DHT22;62505;46.070;14.492;2024-01-06T04:55:19;22.40;64.10
74153;DHT22;62505;46.070;14.492;2024-01-06T04:57:48;22.40;64.10
74153;DHT22;62505;46.070;14.492;2024-01-06T05:00:15;22.40;64.10
74153;DHT22;62505;46.070;14.492;2024-01-06T05:02:42;22.40;64.30
74153;DHT22;62505;46.070;14.492;2024-01-06T05:05:09;22.40;64.20
74153;DHT22;62505;46.070;14.492;2024-01-06T05:07:36;22.40;64.20
74153;DHT22;62505;46.070;14.492;2024-01-06T05:10:04;22.40;64.30
74153;DHT22;62505;46.070;14.492;2024-01-06T05:12:31;22.40;64.30
74153;DHT22;62505;46.070;14.492;2024-01-06T05:15:00;22.40;64.30
74153;DHT22;62505;46.070;14.492;2024-01-06T05:17:27;22.40;64.20
74153;DHT22;62505;46.070;14.492;2024-01-06T05:19:54;22.40;64.20
74153;DHT22;62505;46.070;14.492;2024-01-06T05:22:21;22.40;64.30
74153;DHT22;62505;46.070;14.492;2024-01-06T05:24:48;22.40;64.20
74153;DHT22;62505;46.070;14.492;2024-01-06T05:27:18;22.40;64.20
74153;DHT22;62505;46.070;14.492;2024-01-06T05:29:45;22.40;64.30
74153;DHT22;62505;46.070;14.492;2024-01-06T05:32:16;22.40;64.20
74153;DHT22;62505;46.070;14.492;2024-01-06T05:34:43;22.40;64.20
74153;DHT22;62505;46.070;14.492;2024-01-06T05:37:10;22.40;64.20
74153;DHT22;62505;46.070;14.492;2024-01-06T05:39:37;22.40;64.20
74153;DHT22;62505;46.070;14.492;2024-01-06T05:42:05;22.40;64.30
74153;DHT22;62505;46.070;14.492;2024-01-06T05:44:35;22.40;64.20
74153;DHT22;62505;46.070;14.492;2024-01-06T05:47:03;22.40;64.20
74153;DHT22;62505;46.070;14.492;2024-01-06T05:49:31;22.40;64.30
74153;DHT22;62505;46.070;14.492;2024-01-06T05:51:58;22.40;64.20
74153;DHT22;62505;46.070;14.492;2024-01-06T05:54:25;22.40;64.20
74153;DHT22;62505;46.070;14.492;2024-01-06T05:56:52;22.40;64.20
74153;DHT22;62505;46.070;14.492;2024-01-06T05:59:19;22.40;64.10
74153;DHT22;62505;46.070;14.492;2024-01-06T06:01:46;22.40;64.30
74153;DHT22;62505;46.070;14.492;2024-01-06T06:04:13;22.40;64.20
74153;DHT22;62505;46.070;14.492;2024-01-06T06:06:41;22.40;64.30
74153;DHT22;62505;46.070;14.492;2024-01-06T06:09:08;22.40;64.30
74153;DHT22;62505;46.070;14.492;2024-01-06T06:11:35;22.40;64.30
74153;DHT22;62505;46.070;14.492;2024-01-06T06:14:02;22.40;64.30
74153;DHT22;62505;46.070;14.492;2024-01-06T06:16:30;22.40;64.30
74153;DHT22;62505;46.070;14.492;2024-01-06T06:18:57;22.40;64.20
74153;DHT22;62505;46.070;14.492;2024-01-06T06:21:24;22.40;64.40
74153;DHT22;62505;46.070;14.492;2024-01-06T06:23:52;22.40;64.30
74153;DHT22;62505;46.070;14.492;2024-01-06T06:26:19;22.40;64.40
74153;DHT22;62505;46.070;14.492;2024-01-06T06:28:46;22.40;64.30
74153;DHT22;62505;46.070;14.492;2024-01-06T06:31:13;22.40;64.30
74153;DHT22;62505;46.070;14.492;2024-01-06T06:33:40;22.40;64.30
74153;DHT22;62505;46.070;14.492;2024-01-06T06:36:08;22.40;64.50
74153;DHT22;62505;46.070;14.492;2024-01-06T06:38:34;22.40;64.50
74153;DHT22;62505;46.070;14.492;2024-01-06T06:41:03;22.40;64.50
74153;DHT22;62505;46.070;14.492;2024-01-06T06:43:30;22.40;64.40
74153;DHT22;62505;46.070;14.492;2024-01-06T06:45:57;22.40;64.40
74153;DHT22;62505;46.070;14.492;2024-01-06T06:48:24;22.40;64.60
74153;DHT22;62505;46.070;14.492;2024-01-06T06:50:51;22.40;64.50
74153;DHT22;62505;46.070;14.492;2024-01-06T06:53:19;22.40;64.60
74153;DHT22;62505;46.070;14.492;2024-01-06T06:55:46;22.40;64.60
74153;DHT22;62505;46.070;14.492;2024-01-06T06:58:14;22.40;64.60
74153;DHT22;62505;46.070;14.492;2024-01-06T07:00:41;22.40;64.50
74153;DHT22;62505;46.070;14.492;2024-01-06T07:03:08;22.40;64.50
74153;DHT22;62505;46.070;14.492;2024-01-06T07:05:35;22.40;64.50
74153;DHT22;62505;46.070;14.492;2024-01-06T07:08:02;22.40;64.50
74153;DHT22;62505;46.070;14.492;2024-01-06T07:10:29;22.40;64.40
74153;DHT22;62505;46.070;14.492;2024-01-06T07:12:56;22.40;64.30
74153;DHT22;62505;46.070;14.492;2024-01-06T07:15:25;22.40;64.30
74153;DHT22;62505;46.070;14.492;2024-01-06T07:17:52;22.40;64.60
74153;DHT22;62505;46.070;14.492;2024-01-06T07:20:19;22.40;64.40
74153;DHT22;62505;46.070;14.492;2024-01-06T07:22:46;22.50;64.70
74153;DHT22;62505;46.070;14.492;2024-01-06T07:25:13;22.50;65.10
74153;DHT22;62505;46.070;14.492;2024-01-06T07:27:40;22.50;64.80
74153;DHT22;62505;46.070;14.492;2024-01-06T07:30:07;22.50;65.00
74153;DHT22;62505;46.070;14.492;2024-01-06T07:32:36;22.50;64.70
74153;DHT22;62505;46.070;14.492;2024-01-06T07:35:04;22.50;65.40
74153;DHT22;62505;46.070;14.492;2024-01-06T07:37:31;22.50;64.60
74153;DHT22;62505;46.070;14.492;2024-01-06T07:39:58;22.50;64.80
74153;DHT22;62505;46.070;14.492;2024-01-06T07:42:25;22.50;64.80
74153;DHT22;62505;46.070;14.492;2024-01-06T07:44:52;22.50;64.80
74153;DHT22;62505;46.070;14.492;2024-01-06T07:47:19;22.50;65.70
74153;DHT22;62505;46.070;14.492;2024-01-06T07:49:47;22.50;65.10
74153;DHT22;62505;46.070;14.492;2024-01-06T07:52:14;22.50;65.20
74153;DHT22;62505;46.070;14.492;2024-01-06T07:54:42;22.50;65.50
74153;DHT22;62505;46.070;14.492;2024-01-06T07:57:09;22.50;65.20
74153;DHT22;62505;46.070;14.492;2024-01-06T07:59:36;22.50;65.20
74153;DHT22;62505;46.070;14.492;2024-01-06T08:02:04;22.50;65.20
74153;DHT22;62505;46.070;14.492;2024-01-06T08:04:31;22.50;65.60
74153;DHT22;62505;46.070;14.492;2024-01-06T08:06:59;22.50;65.60
74153;DHT22;62505;46.070;14.492;2024-01-06T08:09:26;22.50;65.60
74153;DHT22;62505;46.070;14.492;2024-01-06T08:11:53;22.50;65.50
74153;DHT22;62505;46.070;14.492;2024-01-06T08:14:20;22.50;65.40
74153;DHT22;62505;46.070;14.492;2024-01-06T08:16:47;22.50;65.40
74153;DHT22;62505;46.070;14.492;2024-01-06T08:19:14;22.50;65.40
74153;DHT22;62505;46.070;14.492;2024-01-06T08:21:41;22.50;65.80
74153;DHT22;62505;46.070;14.492;2024-01-06T08:24:10;22.50;65.40
74153;DHT22;62505;46.070;14.492;2024-01-06T08:26:37;22.50;65.60
74153;DHT22;62505;46.070;14.492;2024-01-06T08:29:03;22.50;65.40
74153;DHT22;62505;46.070;14.492;2024-01-06T08:31:30;22.50;65.50
74153;DHT22;62505;46.070;14.492;2024-01-06T08:33:58;22.50;65.60
74153;DHT22;62505;46.070;14.492;2024-01-06T08:36:25;22.50;65.70
74153;DHT22;62505;46.070;14.492;2024-01-06T08:38:52;22.50;65.90
74153;DHT22;62505;46.070;14.492;2024-01-06T08:41:21;22.50;66.20
74153;DHT22;62505;46.070;14.492;2024-01-06T08:43:48;22.50;66.00
74153;DHT22;62505;46.070;14.492;2024-01-06T08:46:15;22.50;65.70
74153;DHT22;62505;46.070;14.492;2024-01-06T08:48:42;22.50;66.50
74153;DHT22;62505;46.070;14.492;2024-01-06T08:51:09;22.50;66.60
74153;DHT22;62505;46.070;14.492;2024-01-06T08:53:36;22.50;66.90
74153;DHT22;62505;46.070;14.492;2024-01-06T08:56:03;22.50;66.70
74153;DHT22;62505;46.070;14.492;2024-01-06T08:58:33;22.50;66.90
74153;DHT22;62505;46.070;14.492;2024-01-06T09:01:00;22.50;67.30
74153;DHT22;62505;46.070;14.492;2024-01-06T09:03:27;22.50;67.30
74153;DHT22;62505;46.070;14.492;2024-01-06T09:05:56;22.50;67.50
74153;DHT22;62505;46.070;14.492;2024-01-06T09:08:23;22.50;67.90
74153;DHT22;62505;46.070;14.492;2024-01-06T09:10:50;22.50;67.90
74153;DHT22;62505;46.070;14.492;2024-01-06T09:13:21;22.50;61.00
74153;DHT22;62505;46.070;14.492;2024-01-06T09:15:50;22.40;61.50
74153;DHT22;62505;46.070;14.492;2024-01-06T09:18:17;22.40;63.10
74153;DHT22;62505;46.070;14.492;2024-01-06T09:20:44;22.40;63.50
74153;DHT22;62505;46.070;14.492;2024-01-06T09:23:13;22.40;64.10
74153;DHT22;62505;46.070;14.492;2024-01-06T09:25:40;22.40;64.90
74153;DHT22;62505;46.070;14.492;2024-01-06T09:28:06;22.40;65.50
74153;DHT22;62505;46.070;14.492;2024-01-06T09:30:33;22.50;66.60
74153;DHT22;62505;46.070;14.492;2024-01-06T09:33:01;22.50;67.40
74153;DHT22;62505;46.070;14.492;2024-01-06T09:35:28;22.50;68.60
74153;DHT22;62505;46.070;14.492;2024-01-06T09:37:55;22.60;69.50
74153;DHT22;62505;46.070;14.492;2024-01-06T09:40:23;22.50;70.40
74153;DHT22;62505;46.070;14.492;2024-01-06T09:42:51;22.50;69.80
74153;DHT22;62505;46.070;14.492;2024-01-06T09:45:19;22.50;70.60
74153;DHT22;62505;46.070;14.492;2024-01-06T09:47:49;22.60;71.40
74153;DHT22;62505;46.070;14.492;2024-01-06T09:50:19;22.60;71.20
74153;DHT22;62505;46.070;14.492;2024-01-06T09:52:48;22.60;71.20
74153;DHT22;62505;46.070;14.492;2024-01-06T09:55:25;22.50;71.00
74153;DHT22;62505;46.070;14.492;2024-01-06T09:57:53;22.60;70.90
74153;DHT22;62505;46.070;14.492;2024-01-06T10:00:20;22.60;73.10
74153;DHT22;62505;46.070;14.492;2024-01-06T10:02:48;22.60;71.20
74153;DHT22;62505;46.070;14.492;2024-01-06T10:05:17;22.60;69.90
74153;DHT22;62505;46.070;14.492;2024-01-06T10:07:46;22.60;68.40
74153;DHT22;62505;46.070;14.492;2024-01-06T10:10:13;22.60;68.60
74153;DHT22;62505;46.070;14.492;2024-01-06T10:12:41;22.60;68.00
74153;DHT22;62505;46.070;14.492;2024-01-06T10:15:09;22.60;68.60
74153;DHT22;62505;46.070;14.492;2024-01-06T10:17:37;22.60;68.30
74153;DHT22;62505;46.070;14.492;2024-01-06T10:20:07;22.60;67.90
74153;DHT22;62505;46.070;14.492;2024-01-06T10:22:36;22.60;68.00
74153;DHT22;62505;46.070;14.492;2024-01-06T10:25:06;22.50;67.80
74153;DHT22;62505;46.070;14.492;2024-01-06T10:27:34;22.50;67.50
74153;DHT22;62505;46.070;14.492;2024-01-06T10:30:02;22.50;59.90
74153;DHT22;62505;46.070;14.492;2024-01-06T10:32:31;22.30;56.90
74153;DHT22;62505;46.070;14.492;2024-01-06T10:34:59;22.20;55.50
74153;DHT22;62505;46.070;14.492;2024-01-06T10:37:26;22.00;54.70
74153;DHT22;62505;46.070;14.492;2024-01-06T10:40:07;21.90;54.20
74153;DHT22;62505;46.070;14.492;2024-01-06T10:42:36;21.90;55.60
74153;DHT22;62505;46.070;14.492;2024-01-06T10:45:02;21.90;56.50
74153;DHT22;62505;46.070;14.492;2024-01-06T10:47:30;21.90;56.70
74153;DHT22;62505;46.070;14.492;2024-01-06T10:49:59;22.00;57.10
74153;DHT22;62505;46.070;14.492;2024-01-06T10:52:27;22.00;57.20
74153;DHT22;62505;46.070;14.492;2024-01-06T10:54:55;22.00;57.50
74153;DHT22;62505;46.070;14.492;2024-01-06T10:57:24;22.00;57.80
74153;DHT22;62505;46.070;14.492;2024-01-06T10:59:52;22.00;58.30
74153;DHT22;62505;46.070;14.492;2024-01-06T11:02:19;22.00;58.50
74153;DHT22;62505;46.070;14.492;2024-01-06T11:04:47;22.10;58.70
74153;DHT22;62505;46.070;14.492;2024-01-06T11:07:19;22.00;58.70
74153;DHT22;62505;46.070;14.492;2024-01-06T11:09:50;22.00;58.90
74153;DHT22;62505;46.070;14.492;2024-01-06T11:12:18;22.10;59.20
74153;DHT22;62505;46.070;14.492;2024-01-06T11:14:46;22.10;59.40
74153;DHT22;62505;46.070;14.492;2024-01-06T11:17:49;22.10;59.60
74153;DHT22;62505;46.070;14.492;2024-01-06T11:20:16;22.10;59.60
74153;DHT22;62505;46.070;14.492;2024-01-06T11:22:43;22.10;59.90
74153;DHT22;62505;46.070;14.492;2024-01-06T11:25:14;22.10;59.90
74153;DHT22;62505;46.070;14.492;2024-01-06T11:27:43;22.10;59.90
74153;DHT22;62505;46.070;14.492;2024-01-06T11:30:21;22.10;60.30
74153;DHT22;62505;46.070;14.492;2024-01-06T11:32:50;22.10;60.30
74153;DHT22;62505;46.070;14.492;2024-01-06T11:35:19;22.10;60.60
74153;DHT22;62505;46.070;14.492;2024-01-06T11:37:57;22.10;61.00
74153;DHT22;62505;46.070;14.492;2024-01-06T11:40:31;22.20;61.10
74153;DHT22;62505;46.070;14.492;2024-01-06T11:43:01;22.20;61.60
74153;DHT22;62505;46.070;14.492;2024-01-06T11:45:30;22.20;61.80
74153;DHT22;62505;46.070;14.492;2024-01-06T11:47:58;22.20;62.20
74153;DHT22;62505;46.070;14.492;2024-01-06T11:50:25;22.20;62.00
74153;DHT22;62505;46.070;14.492;2024-01-06T11:52:52;22.20;62.10
74153;DHT22;62505;46.070;14.492;2024-01-06T11:55:20;22.20;62.30
74153;DHT22;62505;46.070;14.492;2024-01-06T11:57:47;22.20;62.50
74153;DHT22;62505;46.070;14.492;2024-01-06T12:00:16;22.20;62.70
74153;DHT22;62505;46.070;14.492;2024-01-06T12:02:44;22.20;62.80
74153;DHT22;62505;46.070;14.492;2024-01-06T12:05:15;22.20;62.80
74153;DHT22;62505;46.070;14.492;2024-01-06T12:07:43;22.20;62.90
74153;DHT22;62505;46.070;14.492;2024-01-06T12:10:10;22.20;63.10
74153;DHT22;62505;46.070;14.492;2024-01-06T12:12:39;22.20;63.20
74153;DHT22;62505;46.070;14.492;2024-01-06T12:15:07;22.20;63.00
74153;DHT22;62505;46.070;14.492;2024-01-06T12:17:35;22.20;63.20
74153;DHT22;62505;46.070;14.492;2024-01-06T12:20:05;22.30;63.30
74153;DHT22;62505;46.070;14.492;2024-01-06T12:22:34;22.30;63.30
74153;DHT22;62505;46.070;14.492;2024-01-06T12:25:03;22.30;63.30
74153;DHT22;62505;46.070;14.492;2024-01-06T12:27:32;22.30;63.50
74153;DHT22;62505;46.070;14.492;2024-01-06T12:29:59;22.20;63.50
74153;DHT22;62505;46.070;14.492;2024-01-06T12:32:26;22.30;63.30
74153;DHT22;62505;46.070;14.492;2024-01-06T12:34:53;22.30;63.30
74153;DHT22;62505;46.070;14.492;2024-01-06T12:37:23;22.30;63.40
74153;DHT22;62505;46.070;14.492;2024-01-06T12:39:50;22.30;63.50
74153;DHT22;62505;46.070;14.492;2024-01-06T12:42:17;22.30;63.50
74153;DHT22;62505;46.070;14.492;2024-01-06T12:44:47;22.30;63.50
74153;DHT22;62505;46.070;14.492;2024-01-06T12:47:14;22.30;63.60
74153;DHT22;62505;46.070;14.492;2024-01-06T12:49:42;22.30;63.50
74153;DHT22;62505;46.070;14.492;2024-01-06T12:52:09;22.30;63.50
74153;DHT22;62505;46.070;14.492;2024-01-06T12:54:38;22.30;63.50
74153;DHT22;62505;46.070;14.492;2024-01-06T12:57:05;22.30;63.50
74153;DHT22;62505;46.070;14.492;2024-01-06T12:59:32;22.30;63.90
74153;DHT22;62505;46.070;14.492;2024-01-06T13:01:59;22.30;65.60
74153;DHT22;62505;46.070;14.492;2024-01-06T13:04:26;22.30;64.00
74153;DHT22;62505;46.070;14.492;2024-01-06T13:06:53;22.30;64.20
74153;DHT22;62505;46.070;14.492;2024-01-06T13:09:20;22.30;64.40
74153;DHT22;62505;46.070;14.492;2024-01-06T13:11:50;22.30;64.70
74153;DHT22;62505;46.070;14.492;2024-01-06T13:14:18;22.30;64.60
74153;DHT22;62505;46.070;14.492;2024-01-06T13:16:45;22.30;65.00
74153;DHT22;62505;46.070;14.492;2024-01-06T13:19:12;22.30;65.30
74153;DHT22;62505;46.070;14.492;2024-01-06T13:21:39;22.30;65.40
74153;DHT22;62505;46.070;14.492;2024-01-06T13:24:06;22.30;65.50
74153;DHT22;62505;46.070;14.492;2024-01-06T13:26:33;22.30;65.50
74153;DHT22;62505;46.070;14.492;2024-01-06T13:29:02;22.30;65.30
74153;DHT22;62505;46.070;14.492;2024-01-06T13:31:30;22.30;65.50
74153;DHT22;62505;46.070;14.492;2024-01-06T13:33:58;22.30;65.40
74153;DHT22;62505;46.070;14.492;2024-01-06T13:36:25;22.40;65.30
74153;DHT22;62505;46.070;14.492;2024-01-06T13:38:52;22.40;68.40
74153;DHT22;62505;46.070;14.492;2024-01-06T13:41:19;22.40;68.60
74153;DHT22;62505;46.070;14.492;2024-01-06T13:43:46;22.40;70.70
74153;DHT22;62505;46.070;14.492;2024-01-06T13:46:14;22.40;67.90
74153;DHT22;62505;46.070;14.492;2024-01-06T13:48:41;22.40;66.40
74153;DHT22;62505;46.070;14.492;2024-01-06T13:51:09;22.40;64.00
74153;DHT22;62505;46.070;14.492;2024-01-06T13:53:36;22.40;63.50
74153;DHT22;62505;46.070;14.492;2024-01-06T13:56:04;22.30;63.00
74153;DHT22;62505;46.070;14.492;2024-01-06T13:58:31;22.30;62.50
74153;DHT22;62505;46.070;14.492;2024-01-06T14:01:01;22.30;63.70
74153;DHT22;62505;46.070;14.492;2024-01-06T14:03:29;22.30;63.20
74153;DHT22;62505;46.070;14.492;2024-01-06T14:05:56;22.30;63.30
74153;DHT22;62505;46.070;14.492;2024-01-06T14:08:23;22.30;63.50
74153;DHT22;62505;46.070;14.492;2024-01-06T14:10:50;22.30;63.60
74153;DHT22;62505;46.070;14.492;2024-01-06T14:13:17;22.30;63.70
74153;DHT22;62505;46.070;14.492;2024-01-06T14:15:44;22.30;63.80
74153;DHT22;62505;46.070;14.492;2024-01-06T14:18:11;22.30;63.80
74153;DHT22;62505;46.070;14.492;2024-01-06T14:20:41;22.30;63.80
74153;DHT22;62505;46.070;14.492;2024-01-06T14:23:08;22.30;64.00
74153;DHT22;62505;46.070;14.492;2024-01-06T14:25:36;22.30;64.00
74153;DHT22;62505;46.070;14.492;2024-01-06T14:28:03;22.30;64.30
74153;DHT22;62505;46.070;14.492;2024-01-06T14:30:31;22.30;64.20
74153;DHT22;62505;46.070;14.492;2024-01-06T14:32:58;22.30;64.20
74153;DHT22;62505;46.070;14.492;2024-01-06T14:35:25;22.30;64.20
74153;DHT22;62505;46.070;14.492;2024-01-06T14:37:53;22.30;64.30
74153;DHT22;62505;46.070;14.492;2024-01-06T14:40:22;22.30;64.30
74153;DHT22;62505;46.070;14.492;2024-01-06T14:42:50;22.30;64.30
74153;DHT22;62505;46.070;14.492;2024-01-06T14:45:16;22.30;64.30
74153;DHT22;62505;46.070;14.492;2024-01-06T14:47:43;22.30;64.40
74153;DHT22;62505;46.070;14.492;2024-01-06T14:50:11;22.30;64.40
74153;DHT22;62505;46.070;14.492;2024-01-06T14:52:38;22.30;64.30
74153;DHT22;62505;46.070;14.492;2024-01-06T14:55:07;22.30;65.10
74153;DHT22;62505;46.070;14.492;2024-01-06T14:57:35;22.30;64.50
74153;DHT22;62505;46.070;14.492;2024-01-06T15:00:02;22.30;64.60
74153;DHT22;62505;46.070;14.492;2024-01-06T15:02:30;22.30;64.50
74153;DHT22;62505;46.070;14.492;2024-01-06T15:04:57;22.30;64.60
74153;DHT22;62505;46.070;14.492;2024-01-06T15:07:23;22.30;64.60
74153;DHT22;62505;46.070;14.492;2024-01-06T15:09:50;22.30;64.90
74153;DHT22;62505;46.070;14.492;2024-01-06T15:12:18;22.30;65.20
74153;DHT22;62505;46.070;14.492;2024-01-06T15:14:45;22.30;64.90
74153;DHT22;62505;46.070;14.492;2024-01-06T15:17:12;22.30;65.40